Terminal Aerodrome Forecast
Issued by NWS Buffalo, NY

Home | Current Version | Previous Version | Text Only | Print | Product List | Glossary On
Versions: 1 2 3 4 5 6 7 8 9 10 11 12 13 14 15 16 17 18 19 20 21 22 23 24 25 26 27
000
FTUS41 KBUF 230900 AAA
TAFROC
TAF AMD
KROC 230904Z 2309/2406 23015KT P6SM OVC030
     FM231100 22010KT P6SM OVC035
     FM231800 20008KT P6SM OVC045
     FM232000 16007KT P6SM OVC070
     FM240300 15012KT P6SM BKN080 WS020/18040KT=

USA.gov is the U.S. government's official web portal to all federal, state and local government web resources and services.